Time;durP1;ratioP1;P1;durP2;ratioP2;P2;SDS_P1;SDS_P2;PMS_P1;PMS_P2;Temp;Humidity;BMP_temperature;BMP_pressure;BME280_temperature;BME280_humidity;BME280_pressure;Samples;Min_cycle;Max_cycle;Signal;HPM_P1;HPM_P2
2021/09/03 00:00:38;;;;;;;;;29.25;28.75;;;;;;;;5077696;28;8967;-79
2021/09/03 00:03:05;;;;;;;;;28.75;27.25;;;;;;;;5051805;28;8870;-95
2021/09/03 00:05:32;;;;;;;;;34.50;33.00;;;;;;;;5075323;28;8991;-93
2021/09/03 00:08:00;;;;;;;;;33.00;32.50;;;;;;;;5082203;28;8897;-90
2021/09/03 00:10:27;;;;;;;;;29.50;28.25;;;;;;;;5074603;28;8875;-86
2021/09/03 00:12:56;;;;;;;;;33.25;32.00;;;;;;;;5065409;28;8891;-81
2021/09/03 00:15:23;;;;;;;;;35.00;30.75;;;;;;;;5059798;28;8876;-89
2021/09/03 00:17:51;;;;;;;;;31.25;27.50;;;;;;;;5063009;28;8987;-87
2021/09/03 00:20:18;;;;;;;;;32.75;30.75;;;;;;;;5047471;28;8878;-92
2021/09/03 00:22:46;;;;;;;;;31.00;29.50;;;;;;;;5065084;28;8890;-77
2021/09/03 00:25:14;;;;;;;;;25.25;25.25;;;;;;;;5061691;28;8975;-77
2021/09/03 00:27:41;;;;;;;;;34.33;32.33;;;;;;;;5070341;28;8980;-91
2021/09/03 00:30:12;;;;;;;;;29.00;29.00;;;;;;;;5064515;28;8993;-93
2021/09/03 00:32:40;;;;;;;;;31.67;30.67;;;;;;;;5040339;28;8858;-81
2021/09/03 00:35:09;;;;;;;;;29.33;26.00;;;;;;;;5050573;28;9029;-94
2021/09/03 00:37:36;;;;;;;;;31.00;27.67;;;;;;;;5047723;28;8947;-75
2021/09/03 00:40:04;;;;;;;;;32.33;29.33;;;;;;;;5078232;28;9062;-81
2021/09/03 00:42:31;;;;;;;;;32.00;32.00;;;;;;;;5075667;28;9879;-87
2021/09/03 00:44:59;;;;;;;;;37.00;32.67;;;;;;;;5068278;28;9104;-75
2021/09/03 00:47:27;;;;;;;;;30.67;27.33;;;;;;;;5066480;28;9244;-89
2021/09/03 00:49:55;;;;;;;;;29.33;29.33;;;;;;;;5063064;28;9114;-82
2021/09/03 00:52:22;;;;;;;;;35.67;30.33;;;;;;;;5055134;28;9102;-82
2021/09/03 00:54:49;;;;;;;;;29.67;27.00;;;;;;;;5067847;28;9204;-83
2021/09/03 00:57:17;;;;;;;;;35.00;32.33;;;;;;;;5073740;28;9127;-87
2021/09/03 00:59:45;;;;;;;;;37.00;33.67;;;;;;;;5073780;28;9481;-85
2021/09/03 01:02:12;;;;;;;;;22.33;22.33;;;;;;;;5079829;28;9242;-84
2021/09/03 01:04:41;;;;;;;;;31.00;27.00;;;;;;;;5072321;28;9079;-82
2021/09/03 01:07:08;;;;;;;;;30.33;29.00;;;;;;;;5066252;28;9200;-90
2021/09/03 01:09:35;;;;;;;;;34.33;31.33;;;;;;;;5080691;28;9398;-85
2021/09/03 01:12:03;;;;;;;;;27.33;24.67;;;;;;;;5048646;28;9259;-88
2021/09/03 01:14:31;;;;;;;;;29.67;29.33;;;;;;;;5065224;28;9375;-96
2021/09/03 01:16:58;;;;;;;;;34.33;30.00;;;;;;;;5077419;28;9433;-89
2021/09/03 01:19:25;;;;;;;;;23.33;21.00;;;;;;;;5084118;28;9448;-86
2021/09/03 01:21:54;;;;;;;;;34.00;32.50;;;;;;;;5069179;28;9327;-93
2021/09/03 01:24:22;;;;;;;;;27.00;26.00;;;;;;;;5082204;28;9512;-95
2021/09/03 01:26:50;;;;;;;;;38.00;32.75;;;;;;;;5062881;28;9515;-77
2021/09/03 01:29:17;;;;;;;;;34.75;31.50;;;;;;;;5065181;28;10289;-83
2021/09/03 01:31:44;;;;;;;;;35.00;33.25;;;;;;;;5074718;28;9751;-79
2021/09/03 01:34:11;;;;;;;;;32.25;29.00;;;;;;;;5077366;28;9738;-77
2021/09/03 01:36:39;;;;;;;;;42.50;36.75;;;;;;;;5067248;28;9584;-92
2021/09/03 01:39:07;;;;;;;;;40.00;36.25;;;;;;;;5070124;28;9730;-94
2021/09/03 01:41:35;;;;;;;;;38.00;37.00;;;;;;;;5069036;28;10194;-87
2021/09/03 01:44:02;;;;;;;;;41.00;36.75;;;;;;;;5056169;28;9997;-90
2021/09/03 01:46:30;;;;;;;;;39.00;33.75;;;;;;;;5083452;28;10087;-90
2021/09/03 01:48:57;;;;;;;;;38.75;34.50;;;;;;;;5111341;28;9986;-77
2021/09/03 01:51:24;;;;;;;;;30.75;30.75;;;;;;;;5085249;28;9969;-86
2021/09/03 01:53:52;;;;;;;;;36.50;35.75;;;;;;;;5086737;28;10027;-76
2021/09/03 01:56:20;;;;;;;;;34.25;31.75;;;;;;;;5057812;28;9894;-94
2021/09/03 01:58:48;;;;;;;;;27.75;26.00;;;;;;;;5071972;28;9720;-87
2021/09/03 02:01:15;;;;;;;;;39.25;34.25;;;;;;;;5089025;28;9844;-84
2021/09/03 02:03:42;;;;;;;;;37.75;31.75;;;;;;;;5085660;28;10029;-78
2021/09/03 02:06:10;;;;;;;;;33.00;33.00;;;;;;;;5082159;28;9729;-83
2021/09/03 02:08:37;;;;;;;;;32.50;32.00;;;;;;;;5089421;28;9866;-80
2021/09/03 02:11:04;;;;;;;;;32.25;31.25;;;;;;;;5082914;28;9807;-85
2021/09/03 02:13:33;;;;;;;;;40.25;36.00;;;;;;;;5095121;28;10622;-83
2021/09/03 02:16:00;;;;;;;;;31.25;31.25;;;;;;;;5080783;28;9998;-79
2021/09/03 02:18:27;;;;;;;;;37.00;35.75;;;;;;;;5073836;28;9962;-87
2021/09/03 02:20:54;;;;;;;;;36.75;33.75;;;;;;;;5085172;28;10059;-78
2021/09/03 02:23:22;;;;;;;;;24.00;24.00;;;;;;;;5093015;28;9995;-80
2021/09/03 02:25:49;;;;;;;;;39.75;37.25;;;;;;;;5086241;28;9724;-75
2021/09/03 02:28:16;;;;;;;;;37.75;36.25;;;;;;;;5103986;28;9946;-76
2021/09/03 02:30:45;;;;;;;;;33.75;33.50;;;;;;;;5086539;28;10086;-87
2021/09/03 02:33:13;;;;;;;;;40.00;36.75;;;;;;;;5075251;28;9971;-75
2021/09/03 02:35:41;;;;;;;;;43.75;38.75;;;;;;;;5081539;28;10086;-76
2021/09/03 02:38:08;;;;;;;;;30.75;29.25;;;;;;;;5087980;28;10221;-76
2021/09/03 02:40:35;;;;;;;;;34.50;31.75;;;;;;;;5090482;28;10059;-75
2021/09/03 02:43:02;;;;;;;;;34.50;30.00;;;;;;;;5086806;28;10133;-76
2021/09/03 02:45:30;;;;;;;;;41.50;36.00;;;;;;;;5073726;28;9917;-86
2021/09/03 02:48:01;;;;;;;;;34.75;31.00;;;;;;;;5057053;28;10024;-83
2021/09/03 02:50:29;;;;;;;;;36.25;32.50;;;;;;;;5067828;28;9734;-96
2021/09/03 02:52:58;;;;;;;;;31.00;30.00;;;;;;;;5079785;28;9812;-94
2021/09/03 02:55:26;;;;;;;;;31.75;31.25;;;;;;;;5068476;28;9989;-79
2021/09/03 02:57:53;;;;;;;;;40.50;35.75;;;;;;;;5065919;28;9892;-93
2021/09/03 03:00:21;;;;;;;;;29.75;29.75;;;;;;;;5068361;28;10927;-93
2021/09/03 03:02:48;;;;;;;;;35.75;32.25;;;;;;;;5070285;28;9826;-92
2021/09/03 03:05:17;;;;;;;;;31.25;31.25;;;;;;;;5066979;28;9962;-92
2021/09/03 03:07:44;;;;;;;;;29.75;27.50;;;;;;;;5050664;28;9987;-94
2021/09/03 03:10:12;;;;;;;;;37.00;30.25;;;;;;;;5076620;28;9898;-85
2021/09/03 03:12:40;;;;;;;;;32.50;27.50;;;;;;;;5079093;28;9909;-87
2021/09/03 03:15:08;;;;;;;;;37.00;36.00;;;;;;;;5073358;28;10167;-76
2021/09/03 03:17:35;;;;;;;;;33.75;30.75;;;;;;;;5083080;28;10227;-76
2021/09/03 03:20:03;;;;;;;;;38.25;34.50;;;;;;;;5064098;28;10257;-76
2021/09/03 03:22:32;;;;;;;;;35.00;32.50;;;;;;;;5065212;28;10156;-85
2021/09/03 03:24:59;;;;;;;;;35.50;32.50;;;;;;;;5078960;28;10098;-85
2021/09/03 03:27:27;;;;;;;;;41.50;37.50;;;;;;;;5072026;28;10037;-87
2021/09/03 03:29:54;;;;;;;;;44.25;36.00;;;;;;;;5085669;28;10249;-92
2021/09/03 03:32:21;;;;;;;;;39.25;34.75;;;;;;;;5072067;28;10239;-94
2021/09/03 03:34:48;;;;;;;;;38.00;34.75;;;;;;;;5079077;28;10147;-87
2021/09/03 03:37:16;;;;;;;;;34.00;29.00;;;;;;;;5044971;28;10162;-78
2021/09/03 03:39:45;;;;;;;;;30.50;30.00;;;;;;;;5073772;28;10142;-77
2021/09/03 03:42:12;;;;;;;;;35.50;34.75;;;;;;;;5064747;28;10220;-80
2021/09/03 03:44:40;;;;;;;;;34.00;33.25;;;;;;;;5086181;28;10336;-84
2021/09/03 03:47:07;;;;;;;;;34.25;34.00;;;;;;;;5071237;28;10234;-95
2021/09/03 03:49:34;;;;;;;;;41.25;36.25;;;;;;;;5076584;28;10212;-93
2021/09/03 03:52:02;;;;;;;;;33.50;31.50;;;;;;;;5078284;28;10528;-85
2021/09/03 03:54:29;;;;;;;;;41.25;38.25;;;;;;;;5063902;28;11107;-83
2021/09/03 03:56:58;;;;;;;;;41.25;38.00;;;;;;;;5077018;28;10459;-80
2021/09/03 03:59:25;;;;;;;;;44.00;39.25;;;;;;;;5066222;28;10525;-83
2021/09/03 04:01:52;;;;;;;;;43.00;38.50;;;;;;;;5055986;28;10702;-78
2021/09/03 04:04:20;;;;;;;;;36.75;33.50;;;;;;;;5079061;28;10532;-76
2021/09/03 04:06:47;;;;;;;;;42.75;37.25;;;;;;;;5085854;28;10564;-81
2021/09/03 04:09:14;;;;;;;;;41.50;37.00;;;;;;;;5069893;28;10603;-80
2021/09/03 04:11:42;;;;;;;;;33.50;33.50;;;;;;;;5050821;28;10468;-84
2021/09/03 04:14:10;;;;;;;;;45.00;39.00;;;;;;;;5071304;28;10442;-82
2021/09/03 04:16:38;;;;;;;;;46.00;40.25;;;;;;;;5057159;28;10739;-83
2021/09/03 04:19:05;;;;;;;;;41.00;38.75;;;;;;;;5068621;28;10796;-75
2021/09/03 04:21:33;;;;;;;;;49.25;42.00;;;;;;;;5078080;28;10704;-84
2021/09/03 04:24:00;;;;;;;;;39.25;36.25;;;;;;;;5078777;28;10891;-93
2021/09/03 04:26:27;;;;;;;;;50.00;42.75;;;;;;;;5067800;28;10642;-92
2021/09/03 04:28:54;;;;;;;;;50.75;41.50;;;;;;;;5069150;28;10811;-86
2021/09/03 04:31:23;;;;;;;;;43.00;39.00;;;;;;;;5069373;28;10698;-82
2021/09/03 04:33:50;;;;;;;;;46.75;38.50;;;;;;;;5073853;28;10751;-87
2021/09/03 04:36:18;;;;;;;;;48.00;41.25;;;;;;;;5082963;28;10506;-85
2021/09/03 04:38:45;;;;;;;;;41.50;38.00;;;;;;;;5067092;28;10762;-92
2021/09/03 04:41:12;;;;;;;;;46.50;41.00;;;;;;;;5068407;28;10396;-83
2021/09/03 04:43:40;;;;;;;;;48.50;40.75;;;;;;;;5085002;28;10769;-92
2021/09/03 04:46:07;;;;;;;;;44.25;37.75;;;;;;;;5065171;28;10812;-91
2021/09/03 04:48:36;;;;;;;;;44.75;39.75;;;;;;;;5068316;28;10461;-78
2021/09/03 04:51:03;;;;;;;;;39.50;36.25;;;;;;;;5077129;28;11570;-81
2021/09/03 04:53:31;;;;;;;;;47.00;40.75;;;;;;;;5047618;28;10668;-78
2021/09/03 04:55:59;;;;;;;;;43.75;38.75;;;;;;;;5073969;28;10611;-82
2021/09/03 04:58:26;;;;;;;;;42.25;37.50;;;;;;;;5069787;28;10701;-87
2021/09/03 05:00:53;;;;;;;;;49.25;40.00;;;;;;;;5067462;28;10559;-86
2021/09/03 05:03:21;;;;;;;;;43.75;36.75;;;;;;;;5074819;28;11656;-87
2021/09/03 05:05:49;;;;;;;;;43.00;38.25;;;;;;;;5069566;28;10670;-88
2021/09/03 05:08:17;;;;;;;;;48.00;41.00;;;;;;;;5070008;28;11619;-87
2021/09/03 05:10:44;;;;;;;;;51.25;43.50;;;;;;;;5058012;28;10615;-82
2021/09/03 05:13:11;;;;;;;;;46.50;40.00;;;;;;;;5069663;28;10911;-83
2021/09/03 05:15:41;;;;;;;;;44.75;38.25;;;;;;;;5083616;28;10851;-83
2021/09/03 05:18:09;;;;;;;;;44.00;39.50;;;;;;;;5087922;28;10754;-83
2021/09/03 05:20:36;;;;;;;;;43.75;39.00;;;;;;;;5073074;28;10701;-74
2021/09/03 05:23:06;;;;;;;;;45.50;39.00;;;;;;;;5078943;28;10887;-75
2021/09/03 05:25:33;;;;;;;;;40.50;37.75;;;;;;;;5075829;28;10642;-74
2021/09/03 05:28:00;;;;;;;;;45.25;39.00;;;;;;;;5069632;28;10651;-73
2021/09/03 05:30:27;;;;;;;;;42.00;37.50;;;;;;;;5065367;28;10646;-73
2021/09/03 05:32:55;;;;;;;;;53.00;39.00;;;;;;;;5057204;28;10639;-73
2021/09/03 05:35:24;;;;;;;;;52.25;40.00;;;;;;;;5063615;28;10796;-73
2021/09/03 05:37:52;;;;;;;;;48.50;41.00;;;;;;;;5048338;28;10689;-74
2021/09/03 05:40:22;;;;;;;;;46.25;39.25;;;;;;;;5065881;28;10585;-73
2021/09/03 05:42:49;;;;;;;;;47.50;42.50;;;;;;;;5065152;28;10723;-73
2021/09/03 05:45:17;;;;;;;;;49.50;40.75;;;;;;;;5065825;28;10763;-73
2021/09/03 05:47:44;;;;;;;;;46.50;41.25;;;;;;;;5064055;28;10721;-74
2021/09/03 05:50:12;;;;;;;;;49.50;42.75;;;;;;;;5064826;28;10704;-73
2021/09/03 05:52:39;;;;;;;;;48.75;40.50;;;;;;;;5061639;28;10784;-73
2021/09/03 05:55:07;;;;;;;;;44.50;38.00;;;;;;;;5062530;28;10948;-73
2021/09/03 05:57:36;;;;;;;;;46.50;40.75;;;;;;;;5064872;28;10622;-73
2021/09/03 06:00:04;;;;;;;;;48.50;40.75;;;;;;;;5064457;28;10622;-73
2021/09/03 06:02:32;;;;;;;;;57.75;46.50;;;;;;;;5064140;28;10812;-73
2021/09/03 06:04:59;;;;;;;;;53.50;44.75;;;;;;;;5064224;28;11793;-73
2021/09/03 06:07:27;;;;;;;;;53.00;45.50;;;;;;;;5048082;28;11811;-74
2021/09/03 06:09:54;;;;;;;;;54.50;46.00;;;;;;;;5061982;28;10936;-73
2021/09/03 06:12:22;;;;;;;;;58.75;46.00;;;;;;;;5065540;28;10929;-74
2021/09/03 06:14:50;;;;;;;;;52.50;45.50;;;;;;;;5062496;28;10689;-73
2021/09/03 06:17:18;;;;;;;;;55.25;46.50;;;;;;;;5065553;28;10827;-74
2021/09/03 06:19:45;;;;;;;;;39.75;36.75;;;;;;;;5065629;28;10701;-74
2021/09/03 06:22:12;;;;;;;;;55.00;46.00;;;;;;;;5063940;28;10309;-74
2021/09/03 06:24:40;;;;;;;;;43.50;38.00;;;;;;;;5065653;28;10688;-74
2021/09/03 06:27:09;;;;;;;;;50.50;40.50;;;;;;;;5064320;28;10334;-74
2021/09/03 06:29:40;;;;;;;;;51.75;44.75;;;;;;;;5062799;28;10410;-74
2021/09/03 06:32:12;;;;;;;;;56.50;47.25;;;;;;;;5065021;28;10562;-73
2021/09/03 06:34:40;;;;;;;;;55.25;45.50;;;;;;;;5059898;28;11443;-74
2021/09/03 06:37:08;;;;;;;;;59.50;47.50;;;;;;;;5063238;28;10372;-74
2021/09/03 06:39:36;;;;;;;;;55.75;46.50;;;;;;;;5063778;28;10333;-74
2021/09/03 06:42:05;;;;;;;;;54.00;44.00;;;;;;;;5065701;28;10242;-74
2021/09/03 06:44:32;;;;;;;;;54.00;44.00;;;;;;;;5064148;28;10225;-74
2021/09/03 06:47:00;;;;;;;;;52.25;43.25;;;;;;;;5064879;28;10120;-74
2021/09/03 06:49:29;;;;;;;;;56.75;43.00;;;;;;;;5057694;28;9899;-74
2021/09/03 06:51:56;;;;;;;;;53.25;44.00;;;;;;;;5074105;28;10162;-74
2021/09/03 06:54:23;;;;;;;;;44.50;38.75;;;;;;;;5076913;28;9978;-73
2021/09/03 06:56:51;;;;;;;;;54.75;44.00;;;;;;;;5084434;28;9835;-73
2021/09/03 06:59:19;;;;;;;;;47.50;40.75;;;;;;;;5077259;28;9797;-74
2021/09/03 07:01:46;;;;;;;;;41.50;36.75;;;;;;;;5076897;28;9609;-74
2021/09/03 07:04:13;;;;;;;;;50.50;43.25;;;;;;;;5064389;28;9543;-74
2021/09/03 07:06:42;;;;;;;;;51.25;43.25;;;;;;;;5063602;28;9756;-74
2021/09/03 07:09:09;;;;;;;;;47.75;42.00;;;;;;;;5061039;28;9579;-74
2021/09/03 07:11:37;;;;;;;;;55.25;41.50;;;;;;;;5063833;28;9485;-73
2021/09/03 07:14:05;;;;;;;;;56.75;44.00;;;;;;;;5060534;28;9598;-74
2021/09/03 07:16:33;;;;;;;;;55.00;43.25;;;;;;;;5065300;28;9662;-74
2021/09/03 07:19:03;;;;;;;;;52.75;43.00;;;;;;;;5063122;28;9732;-74
2021/09/03 07:21:31;;;;;;;;;53.00;41.25;;;;;;;;5064001;28;9597;-74
2021/09/03 07:24:00;;;;;;;;;53.75;44.25;;;;;;;;5063571;28;9604;-74
2021/09/03 07:26:27;;;;;;;;;52.25;43.25;;;;;;;;5063390;28;9858;-73
2021/09/03 07:28:55;;;;;;;;;48.25;38.50;;;;;;;;5064843;28;9481;-73
2021/09/03 07:31:23;;;;;;;;;43.33;37.33;;;;;;;;5061795;28;9448;-73
2021/09/03 07:33:50;;;;;;;;;49.67;42.00;;;;;;;;5064234;28;9345;-73
2021/09/03 07:36:18;;;;;;;;;51.33;40.33;;;;;;;;5062725;28;9208;-74
2021/09/03 07:38:45;;;;;;;;;42.00;38.00;;;;;;;;5046408;28;9187;-73
2021/09/03 07:41:14;;;;;;;;;53.33;42.67;;;;;;;;5062941;28;9179;-74
2021/09/03 07:43:41;;;;;;;;;44.67;36.33;;;;;;;;5063648;28;9201;-74
2021/09/03 07:46:09;;;;;;;;;44.67;39.00;;;;;;;;5045516;28;9270;-74
2021/09/03 07:48:36;;;;;;;;;44.33;37.33;;;;;;;;5062599;28;9060;-74
2021/09/03 07:51:03;;;;;;;;;43.00;36.50;;;;;;;;5063494;28;8974;-73
2021/09/03 07:53:31;;;;;;;;;43.00;35.75;;;;;;;;5060826;28;8877;-74
2021/09/03 07:55:59;;;;;;;;;36.75;34.50;;;;;;;;5061198;28;8863;-73
2021/09/03 07:58:28;;;;;;;;;38.00;34.50;;;;;;;;5063058;28;8899;-74
2021/09/03 08:00:55;;;;;;;;;33.25;30.25;;;;;;;;5062519;28;8893;-73
2021/09/03 08:03:23;;;;;;;;;26.50;26.50;;;;;;;;5045755;28;8860;-74
2021/09/03 08:05:50;;;;;;;;;30.75;30.00;;;;;;;;5062578;28;8888;-73
2021/09/03 08:08:17;;;;;;;;;32.25;31.25;;;;;;;;5046195;28;8864;-74
2021/09/03 08:10:45;;;;;;;;;31.50;27.75;;;;;;;;5062054;28;8864;-73
2021/09/03 08:13:12;;;;;;;;;33.25;30.00;;;;;;;;5063272;28;8888;-74
2021/09/03 08:15:41;;;;;;;;;30.25;29.25;;;;;;;;5043787;28;8898;-74
2021/09/03 08:18:09;;;;;;;;;26.25;24.75;;;;;;;;5064223;28;8879;-74
2021/09/03 08:20:37;;;;;;;;;40.00;31.75;;;;;;;;5063460;28;8848;-74
2021/09/03 08:23:05;;;;;;;;;28.00;23.75;;;;;;;;5062875;28;8899;-74
2021/09/03 08:25:32;;;;;;;;;35.25;31.25;;;;;;;;5063220;28;8864;-74
2021/09/03 08:28:00;;;;;;;;;28.75;28.75;;;;;;;;5062207;28;8900;-74
2021/09/03 08:30:27;;;;;;;;;33.00;29.00;;;;;;;;5061876;28;8826;-74
2021/09/03 08:32:56;;;;;;;;;31.25;28.75;;;;;;;;5062277;28;8884;-74
2021/09/03 08:35:24;;;;;;;;;27.75;25.75;;;;;;;;5063720;28;8860;-74
2021/09/03 08:37:52;;;;;;;;;26.25;26.25;;;;;;;;5061495;28;8964;-75
2021/09/03 08:40:24;;;;;;;;;26.50;26.50;;;;;;;;5062696;28;8872;-74
2021/09/03 08:42:52;;;;;;;;;31.75;29.50;;;;;;;;5063975;28;8929;-74
2021/09/03 08:45:19;;;;;;;;;27.00;26.50;;;;;;;;5062090;28;8917;-74
2021/09/03 08:47:46;;;;;;;;;23.25;23.25;;;;;;;;5073721;28;8897;-75
2021/09/03 08:50:17;;;;;;;;;25.25;23.75;;;;;;;;5063311;28;8933;-74
2021/09/03 08:52:45;;;;;;;;;23.25;23.25;;;;;;;;5045102;28;8872;-75
2021/09/03 08:55:13;;;;;;;;;28.75;27.00;;;;;;;;5061234;28;8914;-74
2021/09/03 08:57:40;;;;;;;;;28.00;27.60;;;;;;;;5062908;28;8884;-74
2021/09/03 09:00:13;;;;;;;;;24.80;24.80;;;;;;;;5062491;28;8884;-75
2021/09/03 09:03:03;;;;;;;;;27.20;24.80;;;;;;;;5059005;28;8864;-75
2021/09/03 09:05:49;;;;;;;;;25.60;24.40;;;;;;;;5062047;28;8863;-75
2021/09/03 09:08:16;;;;;;;;;19.20;15.80;;;;;;;;5062253;28;8876;-74
2021/09/03 09:10:49;;;;;;;;;24.40;23.20;;;;;;;;5062986;28;9038;-75
2021/09/03 09:13:18;;;;;;;;;20.20;18.00;;;;;;;;5063269;28;8858;-74
2021/09/03 09:16:01;;;;;;;;;21.20;21.20;;;;;;;;5059310;28;8970;-76
2021/09/03 09:18:37;;;;;;;;;18.80;18.80;;;;;;;;5060941;28;8883;-75
2021/09/03 09:21:29;;;;;;;;;21.80;21.80;;;;;;;;5061855;28;8982;-75
2021/09/03 09:23:58;;;;;;;;;19.20;19.20;;;;;;;;5053999;28;8938;-75
2021/09/03 09:26:28;;;;;;;;;19.60;17.60;;;;;;;;5062769;28;8860;-76
2021/09/03 09:28:56;;;;;;;;;19.20;19.20;;;;;;;;5061893;28;8985;-75
2021/09/03 09:31:45;;;;;;;;;20.20;19.60;;;;;;;;5062245;28;8808;-75
2021/09/03 09:34:20;;;;;;;;;20.60;20.60;;;;;;;;5059288;28;8871;-75
2021/09/03 09:36:51;;;;;;;;;19.40;19.40;;;;;;;;5062135;28;8882;-75
2021/09/03 09:39:19;;;;;;;;;20.60;18.60;;;;;;;;5046415;28;9722;-75
2021/09/03 09:41:56;;;;;;;;;18.40;18.40;;;;;;;;5065365;28;8867;-75
2021/09/03 09:44:29;;;;;;;;;20.00;20.00;;;;;;;;5064585;28;8882;-75
2021/09/03 09:47:04;;;;;;;;;17.40;17.40;;;;;;;;5064504;28;8876;-74
2021/09/03 09:49:31;;;;;;;;;16.20;16.20;;;;;;;;5063448;28;10049;-75
2021/09/03 09:52:00;;;;;;;;;20.60;19.20;;;;;;;;5065314;28;8832;-76
2021/09/03 09:54:28;;;;;;;;;17.40;16.00;;;;;;;;5064736;28;8882;-75
2021/09/03 09:56:56;;;;;;;;;12.20;12.20;;;;;;;;5048104;28;8856;-76
2021/09/03 09:59:25;;;;;;;;;18.40;18.40;;;;;;;;5065059;28;8870;-76
2021/09/03 10:01:54;;;;;;;;;16.00;15.20;;;;;;;;5052674;28;8954;-75
2021/09/03 10:04:23;;;;;;;;;19.20;19.20;;;;;;;;5065104;28;8900;-74
2021/09/03 10:06:52;;;;;;;;;15.20;15.20;;;;;;;;5065883;28;8877;-74
2021/09/03 10:09:22;;;;;;;;;18.80;17.40;;;;;;;;5064960;28;8991;-75
2021/09/03 10:11:52;;;;;;;;;17.20;16.00;;;;;;;;5064873;28;8899;-75
2021/09/03 10:14:22;;;;;;;;;15.40;15.40;;;;;;;;5064000;28;9739;-75
2021/09/03 10:16:51;;;;;;;;;14.20;14.20;;;;;;;;5064651;28;8882;-74
2021/09/03 10:19:22;;;;;;;;;16.20;16.20;;;;;;;;5065540;28;8876;-75
2021/09/03 10:21:49;;;;;;;;;15.40;12.40;;;;;;;;5064562;28;8956;-75
2021/09/03 10:24:23;;;;;;;;;16.20;14.40;;;;;;;;5065210;28;8908;-75
2021/09/03 10:26:53;;;;;;;;;13.20;13.20;;;;;;;;5063574;28;8864;-75
2021/09/03 10:29:27;;;;;;;;;18.40;17.20;;;;;;;;5064824;28;8978;-77
2021/09/03 10:32:26;;;;;;;;;16.00;16.00;;;;;;;;5063373;28;9645;-77
2021/09/03 10:35:03;;;;;;;;;15.80;15.80;;;;;;;;5011246;28;8888;-75
2021/09/03 10:37:35;;;;;;;;;15.20;14.80;;;;;;;;5062863;28;8864;-75
2021/09/03 10:40:19;;;;;;;;;14.80;14.80;;;;;;;;5079872;28;8857;-75
2021/09/03 10:42:51;;;;;;;;;12.60;11.00;;;;;;;;5081555;28;8865;-75
2021/09/03 10:45:22;;;;;;;;;16.00;15.40;;;;;;;;5075257;28;8985;-74
2021/09/03 10:47:52;;;;;;;;;13.40;13.40;;;;;;;;5076201;28;8873;-75
2021/09/03 10:50:22;;;;;;;;;14.40;13.00;;;;;;;;5082027;28;9003;-76
2021/09/03 10:53:15;;;;;;;;;19.20;16.00;;;;;;;;5046957;28;8882;-75
2021/09/03 10:55:56;;;;;;;;;11.80;11.80;;;;;;;;5059067;28;8859;-75
2021/09/03 10:58:59;;;;;;;;;13.00;13.00;;;;;;;;5066008;28;9003;-76
2021/09/03 11:01:38;;;;;;;;;13.00;13.00;;;;;;;;5061953;28;8800;-77
2021/09/03 11:04:13;;;;;;;;;14.20;12.80;;;;;;;;5060665;28;8998;-76
2021/09/03 11:06:50;;;;;;;;;11.40;10.80;;;;;;;;5046743;28;8888;-74
2021/09/03 11:09:32;;;;;;;;;12.80;12.80;;;;;;;;5064593;28;8894;-75
2021/09/03 11:12:02;;;;;;;;;11.80;11.80;;;;;;;;5049051;28;8892;-76
2021/09/03 11:14:32;;;;;;;;;13.60;13.60;;;;;;;;5069705;28;8901;-75
2021/09/03 11:17:02;;;;;;;;;12.40;11.80;;;;;;;;5053835;28;8879;-75
2021/09/03 11:19:32;;;;;;;;;12.40;11.80;;;;;;;;5079345;28;9894;-76
2021/09/03 11:22:01;;;;;;;;;10.80;9.40;;;;;;;;5063338;28;8888;-77
2021/09/03 11:24:31;;;;;;;;;9.60;9.60;;;;;;;;5063685;28;8882;-75
2021/09/03 11:27:01;;;;;;;;;14.60;12.20;;;;;;;;5062193;28;8886;-75
2021/09/03 11:29:31;;;;;;;;;10.00;10.00;;;;;;;;5064220;28;8852;-75
2021/09/03 11:32:06;;;;;;;;;12.80;12.80;;;;;;;;5062517;28;8749;-75
2021/09/03 11:34:47;;;;;;;;;12.40;12.40;;;;;;;;5062978;28;9017;-74
2021/09/03 11:37:23;;;;;;;;;11.00;11.00;;;;;;;;5061978;28;8871;-74
2021/09/03 11:39:51;;;;;;;;;11.40;11.40;;;;;;;;5041258;28;8868;-75
2021/09/03 11:42:23;;;;;;;;;11.40;11.40;;;;;;;;5063218;28;8871;-75
2021/09/03 11:44:54;;;;;;;;;13.00;12.20;;;;;;;;5063374;28;8880;-74
2021/09/03 11:47:34;;;;;;;;;10.60;10.00;;;;;;;;5064042;28;8883;-75
2021/09/03 11:50:02;;;;;;;;;10.00;10.00;;;;;;;;5062232;28;8868;-74
2021/09/03 11:52:31;;;;;;;;;10.40;10.40;;;;;;;;5063552;28;8877;-74
2021/09/03 11:54:59;;;;;;;;;9.20;9.20;;;;;;;;5062779;28;8859;-74
2021/09/03 11:57:26;;;;;;;;;8.20;8.20;;;;;;;;5062651;28;9788;-74
2021/09/03 11:59:57;;;;;;;;;7.80;7.80;;;;;;;;5064511;28;8883;-76
2021/09/03 12:02:25;;;;;;;;;10.80;10.80;;;;;;;;5063078;28;8850;-74
2021/09/03 12:04:54;;;;;;;;;9.00;9.00;;;;;;;;5062662;28;8887;-74
2021/09/03 12:07:23;;;;;;;;;9.40;9.40;;;;;;;;5046799;28;8854;-74
2021/09/03 12:09:54;;;;;;;;;9.00;9.00;;;;;;;;5063276;28;8868;-74
2021/09/03 12:12:26;;;;;;;;;13.40;10.00;;;;;;;;5073416;28;8865;-74
2021/09/03 12:14:57;;;;;;;;;9.80;9.80;;;;;;;;5054589;28;8859;-74
2021/09/03 12:17:39;;;;;;;;;11.20;10.20;;;;;;;;5064120;28;8892;-75
2021/09/03 12:20:15;;;;;;;;;9.00;8.20;;;;;;;;5061793;28;8926;-74
2021/09/03 12:22:51;;;;;;;;;8.80;8.80;;;;;;;;5061897;28;9711;-74
2021/09/03 12:25:18;;;;;;;;;9.40;9.40;;;;;;;;5064036;28;8937;-73
2021/09/03 12:28:07;;;;;;;;;12.00;10.60;;;;;;;;5066399;28;8892;-74
2021/09/03 12:30:36;;;;;;;;;9.00;9.00;;;;;;;;5083686;28;8766;-74
2021/09/03 12:33:27;;;;;;;;;10.80;9.80;;;;;;;;5084018;28;8887;-74
2021/09/03 12:35:57;;;;;;;;;9.40;9.40;;;;;;;;5082946;28;8889;-74
2021/09/03 12:38:33;;;;;;;;;14.20;9.80;;;;;;;;5070575;28;9001;-74
2021/09/03 12:41:05;;;;;;;;;9.20;9.20;;;;;;;;5062697;28;8860;-74
2021/09/03 12:43:33;;;;;;;;;9.20;9.20;;;;;;;;5063884;28;8875;-74
2021/09/03 12:46:11;;;;;;;;;11.20;11.20;;;;;;;;5067552;28;8885;-74
2021/09/03 12:48:38;;;;;;;;;11.80;11.80;;;;;;;;5082844;28;8885;-74
2021/09/03 12:51:06;;;;;;;;;11.00;9.20;;;;;;;;5083775;28;8865;-76
2021/09/03 12:53:33;;;;;;;;;8.80;8.80;;;;;;;;5077906;28;8898;-76
2021/09/03 12:56:01;;;;;;;;;10.40;10.40;;;;;;;;5039754;28;8877;-73
2021/09/03 12:58:28;;;;;;;;;8.80;8.60;;;;;;;;5081517;28;8907;-73
2021/09/03 13:00:57;;;;;;;;;11.00;11.00;;;;;;;;5070363;28;8913;-75
2021/09/03 13:03:25;;;;;;;;;12.20;8.80;;;;;;;;5078694;28;8845;-75
2021/09/03 13:05:53;;;;;;;;;10.00;10.00;;;;;;;;5083374;28;9439;-73
2021/09/03 13:08:20;;;;;;;;;9.00;9.00;;;;;;;;5067642;28;9074;-74
2021/09/03 13:10:47;;;;;;;;;8.80;8.20;;;;;;;;5062245;28;8880;-74
2021/09/03 13:13:15;;;;;;;;;9.40;8.80;;;;;;;;5065878;28;8927;-74
2021/09/03 13:15:42;;;;;;;;;8.20;8.00;;;;;;;;5066124;28;8884;-74
2021/09/03 13:18:09;;;;;;;;;8.40;8.40;;;;;;;;5087240;28;8881;-74
2021/09/03 13:20:38;;;;;;;;;9.20;9.20;;;;;;;;5076195;28;8965;-74
2021/09/03 13:23:06;;;;;;;;;7.00;7.00;;;;;;;;5087112;28;8869;-73
2021/09/03 13:25:33;;;;;;;;;9.00;9.00;;;;;;;;5087159;28;8883;-74
2021/09/03 13:28:00;;;;;;;;;9.60;9.60;;;;;;;;5086227;28;8877;-74
2021/09/03 13:30:27;;;;;;;;;8.80;8.00;;;;;;;;5086873;28;8802;-75
2021/09/03 13:32:54;;;;;;;;;8.80;8.80;;;;;;;;5077501;28;8922;-74
2021/09/03 13:35:22;;;;;;;;;10.20;10.20;;;;;;;;5065548;28;8879;-75
2021/09/03 13:37:50;;;;;;;;;8.80;8.80;;;;;;;;5065768;28;8884;-74
2021/09/03 13:40:18;;;;;;;;;12.40;11.20;;;;;;;;5048114;28;8856;-75
2021/09/03 13:42:48;;;;;;;;;11.40;10.00;;;;;;;;5062693;28;8877;-74
2021/09/03 13:45:15;;;;;;;;;9.00;9.00;;;;;;;;5065092;28;9650;-75
2021/09/03 13:47:42;;;;;;;;;9.20;9.20;;;;;;;;5066535;28;8876;-77
2021/09/03 13:50:11;;;;;;;;;11.00;11.00;;;;;;;;5065499;28;8888;-73
2021/09/03 13:52:38;;;;;;;;;8.20;7.00;;;;;;;;5066012;28;8890;-72
2021/09/03 13:55:08;;;;;;;;;9.20;9.20;;;;;;;;5074773;28;8865;-74
2021/09/03 13:57:37;;;;;;;;;8.80;8.80;;;;;;;;5073022;28;8844;-75
2021/09/03 14:00:06;;;;;;;;;10.00;10.00;;;;;;;;5065365;28;8882;-78
2021/09/03 14:02:33;;;;;;;;;8.80;8.80;;;;;;;;5065380;28;8889;-74
2021/09/03 14:05:00;;;;;;;;;8.20;8.20;;;;;;;;5065651;28;8913;-74
2021/09/03 14:07:28;;;;;;;;;9.00;9.00;;;;;;;;5064093;28;8856;-74
2021/09/03 14:09:55;;;;;;;;;10.00;10.00;;;;;;;;5065475;28;8902;-74
2021/09/03 14:12:24;;;;;;;;;10.20;10.00;;;;;;;;5064816;28;8876;-73
2021/09/03 14:14:52;;;;;;;;;10.00;9.80;;;;;;;;5065118;28;8859;-75
2021/09/03 14:17:20;;;;;;;;;10.00;10.00;;;;;;;;5065844;28;8852;-74
2021/09/03 14:19:49;;;;;;;;;8.20;8.20;;;;;;;;5065283;28;8870;-74
2021/09/03 14:22:16;;;;;;;;;11.80;11.80;;;;;;;;5065887;28;8867;-74
2021/09/03 14:24:44;;;;;;;;;10.00;10.00;;;;;;;;5063776;28;8864;-74
2021/09/03 14:27:13;;;;;;;;;9.80;9.80;;;;;;;;5065433;28;8848;-75
2021/09/03 14:29:41;;;;;;;;;7.40;7.40;;;;;;;;5064947;28;8884;-74
2021/09/03 14:32:09;;;;;;;;;10.00;9.20;;;;;;;;5064579;28;8974;-74
2021/09/03 14:34:36;;;;;;;;;8.40;8.40;;;;;;;;5065034;28;8845;-74
2021/09/03 14:37:05;;;;;;;;;10.80;9.60;;;;;;;;5061758;28;8876;-74
2021/09/03 14:39:32;;;;;;;;;10.80;9.20;;;;;;;;5064901;28;8921;-74